createdAt,value
2023-01-12T00:02:09.185Z,8.60
2023-01-12T00:04:38.447Z,8.57
2023-01-12T00:07:07.489Z,8.56
2023-01-12T00:09:36.519Z,8.64
2023-01-12T00:12:05.983Z,8.64
2023-01-12T00:14:34.224Z,8.56
2023-01-12T00:17:01.940Z,8.64
2023-01-12T00:19:29.605Z,8.60
2023-01-12T00:22:02.288Z,8.61
2023-01-12T00:24:33.723Z,8.57
2023-01-12T00:27:05.846Z,8.60
2023-01-12T00:29:34.133Z,8.46
2023-01-12T00:32:02.358Z,8.45
2023-01-12T00:34:30.126Z,8.47
2023-01-12T00:37:00.624Z,8.40
2023-01-12T00:39:29.100Z,8.40
2023-01-12T00:42:14.382Z,8.44
2023-01-12T00:45:01.351Z,8.38
2023-01-12T00:47:29.146Z,8.37
2023-01-12T00:49:56.757Z,8.36
2023-01-12T00:52:30.750Z,8.27
2023-01-12T00:55:00.382Z,8.46
2023-01-12T00:57:29.648Z,8.44
2023-01-12T01:00:00.525Z,8.44
2023-01-12T01:02:29.478Z,8.56
2023-01-12T01:04:57.342Z,8.41
2023-01-12T01:07:25.419Z,8.43
2023-01-12T01:09:53.148Z,8.41
2023-01-12T01:12:21.027Z,8.45
2023-01-12T01:14:49.218Z,8.45
2023-01-12T01:17:18.369Z,8.42
2023-01-12T01:19:46.034Z,8.40
2023-01-12T01:22:13.826Z,8.40
2023-01-12T01:24:43.110Z,8.50
2023-01-12T01:27:11.020Z,8.40
2023-01-12T01:29:39.246Z,8.40
2023-01-12T01:32:07.467Z,8.47
2023-01-12T01:34:37.058Z,8.36
2023-01-12T01:37:04.699Z,8.43
2023-01-12T01:39:32.647Z,8.40
2023-01-12T01:42:00.988Z,8.30
2023-01-12T01:44:52.261Z,8.36
2023-01-12T01:47:28.009Z,8.43
2023-01-12T01:50:00.266Z,8.45
2023-01-12T01:52:33.874Z,8.40
2023-01-12T01:55:06.683Z,8.36
2023-01-12T01:57:42.307Z,8.39
2023-01-12T02:00:13.238Z,8.41
2023-01-12T02:02:44.300Z,8.38
2023-01-12T02:05:14.852Z,8.38
2023-01-12T02:07:45.227Z,8.39
2023-01-12T02:10:13.699Z,8.42
2023-01-12T02:12:58.986Z,8.38
2023-01-12T02:15:47.002Z,8.48
2023-01-12T02:18:25.217Z,8.59
2023-01-12T02:21:12.467Z,8.55
2023-01-12T02:24:14.794Z,8.47
2023-01-12T02:27:22.038Z,8.51
2023-01-12T02:30:40.245Z,8.52
2023-01-12T02:33:24.105Z,8.54
2023-01-12T02:36:00.276Z,8.56
2023-01-12T02:38:36.771Z,8.59
2023-01-12T02:41:14.262Z,8.61
2023-01-12T02:44:13.691Z,8.56
2023-01-12T02:46:43.847Z,8.60
2023-01-12T02:49:17.392Z,8.63
2023-01-12T02:51:50.279Z,8.61
2023-01-12T02:54:21.208Z,8.61
2023-01-12T02:56:51.520Z,8.72
2023-01-12T02:59:23.732Z,8.69
2023-01-12T03:01:59.241Z,8.67
2023-01-12T03:04:30.249Z,8.82
2023-01-12T03:07:33.106Z,8.72
2023-01-12T03:10:09.300Z,8.67
2023-01-12T03:12:40.655Z,8.73
2023-01-12T03:15:10.863Z,8.66
2023-01-12T03:17:42.977Z,8.63
2023-01-12T03:20:18.301Z,8.63
2023-01-12T03:22:49.972Z,8.52
2023-01-12T03:25:21.238Z,8.62
2023-01-12T03:27:55.249Z,8.56
2023-01-12T03:30:30.038Z,8.59
2023-01-12T03:32:58.764Z,8.60
2023-01-12T03:35:33.065Z,8.51
2023-01-12T03:38:10.136Z,8.55
2023-01-12T03:40:42.261Z,8.63
2023-01-12T03:43:14.583Z,8.55
2023-01-12T03:45:47.490Z,8.50
2023-01-12T03:48:26.435Z,8.56
2023-01-12T03:51:00.668Z,8.53
2023-01-12T03:53:35.239Z,8.55
2023-01-12T03:56:06.848Z,8.50
2023-01-12T03:58:36.330Z,8.53
2023-01-12T04:01:06.104Z,8.51
2023-01-12T04:03:34.353Z,8.47
2023-01-12T04:06:04.246Z,8.50
2023-01-12T04:08:32.251Z,8.54
2023-01-12T04:11:22.619Z,8.59
2023-01-12T04:13:50.302Z,8.52
2023-01-12T04:16:18.075Z,8.51
2023-01-12T04:18:46.226Z,8.47
2023-01-12T04:21:29.087Z,8.53
2023-01-12T04:23:56.857Z,8.51
2023-01-12T04:26:24.606Z,8.43
2023-01-12T04:28:52.422Z,8.45
2023-01-12T04:31:20.159Z,8.50
2023-01-12T04:33:47.903Z,8.48
2023-01-12T04:36:16.767Z,8.57
2023-01-12T04:38:44.344Z,8.55
2023-01-12T04:41:12.022Z,8.48
2023-01-12T04:43:40.224Z,8.56
2023-01-12T04:46:09.441Z,8.51
2023-01-12T04:48:38.057Z,8.43
2023-01-12T04:51:32.742Z,8.55
2023-01-12T04:54:01.800Z,8.50
2023-01-12T04:56:29.371Z,8.56
2023-01-12T04:59:00.097Z,8.58
2023-01-12T05:01:30.227Z,8.59
2023-01-12T05:04:00.533Z,8.56
2023-01-12T05:06:29.244Z,8.56
2023-01-12T05:09:17.010Z,8.64
2023-01-12T05:11:46.176Z,8.63
2023-01-12T05:14:17.247Z,8.53
2023-01-12T05:16:45.360Z,8.48
2023-01-12T05:19:13.998Z,8.56
2023-01-12T05:21:41.562Z,8.56
2023-01-12T05:24:10.562Z,8.57
2023-01-12T05:26:39.781Z,8.66
2023-01-12T05:29:07.408Z,8.58
2023-01-12T05:31:35.489Z,8.58
2023-01-12T05:34:03.067Z,8.55
2023-01-12T05:36:31.608Z,8.62
2023-01-12T05:38:59.677Z,8.55
2023-01-12T05:41:52.874Z,8.57
2023-01-12T05:47:12.248Z,8.51
2023-01-12T05:49:39.830Z,8.48
2023-01-12T05:52:07.490Z,8.55
2023-01-12T05:54:35.746Z,8.55
2023-01-12T05:57:04.773Z,8.49
2023-01-12T06:02:25.815Z,8.67
2023-01-12T06:04:53.718Z,8.48
2023-01-12T06:07:21.351Z,8.49
2023-01-12T06:09:49.258Z,8.51
2023-01-12T06:12:47.713Z,8.50
2023-01-12T06:15:15.430Z,8.37
2023-01-12T06:17:43.068Z,8.43
2023-01-12T06:20:14.828Z,8.37
2023-01-12T06:22:42.752Z,8.36
2023-01-12T06:25:10.923Z,8.34
2023-01-12T06:27:40.032Z,8.32
2023-01-12T06:30:10.381Z,8.43
2023-01-12T06:32:38.828Z,8.40
2023-01-12T06:35:18.578Z,8.42
2023-01-12T06:37:47.587Z,8.31
2023-01-12T06:40:16.271Z,8.38
2023-01-12T06:42:45.240Z,8.21
2023-01-12T06:45:38.340Z,8.28
2023-01-12T06:48:08.239Z,8.19
2023-01-12T06:51:02.826Z,8.30
2023-01-12T06:53:31.844Z,8.24
2023-01-12T06:55:59.453Z,8.23
2023-01-12T06:58:29.451Z,8.25
2023-01-12T07:01:01.762Z,8.17
2023-01-12T07:03:29.547Z,8.23
2023-01-12T07:05:59.250Z,8.17
2023-01-12T07:08:53.373Z,8.17
2023-01-12T07:11:23.119Z,8.20
2023-01-12T07:13:52.056Z,8.35
2023-01-12T07:16:20.360Z,8.27
2023-01-12T07:18:49.542Z,8.29
2023-01-12T07:21:19.538Z,8.30
2023-01-12T07:23:49.262Z,8.33
2023-01-12T07:26:18.798Z,8.44
2023-01-12T07:28:46.646Z,8.41
2023-01-12T07:31:19.489Z,8.33
2023-01-12T07:33:47.340Z,8.36
2023-01-12T07:36:14.925Z,8.45
2023-01-12T07:38:44.253Z,8.44
2023-01-12T07:41:32.055Z,8.42
2023-01-12T07:44:09.150Z,8.41
2023-01-12T07:46:40.365Z,8.48
2023-01-12T07:49:08.356Z,8.60
2023-01-12T07:51:36.783Z,8.48
2023-01-12T07:54:04.412Z,8.54
2023-01-12T07:56:32.063Z,8.45
2023-01-12T07:59:00.360Z,8.52
2023-01-12T08:01:29.052Z,8.57
2023-01-12T08:03:58.194Z,8.62
2023-01-12T08:06:25.812Z,8.54
2023-01-12T08:08:54.182Z,8.62
2023-01-12T08:11:23.758Z,8.76
2023-01-12T08:13:59.281Z,8.75
2023-01-12T08:16:32.246Z,8.89
2023-01-12T08:19:12.232Z,8.75
2023-01-12T08:21:46.181Z,8.79
2023-01-12T08:24:16.467Z,8.72
2023-01-12T08:26:46.372Z,8.74
2023-01-12T08:29:19.341Z,8.67
2023-01-12T08:31:47.146Z,8.76
2023-01-12T08:34:16.332Z,8.77
2023-01-12T08:36:44.795Z,8.78
2023-01-12T08:39:13.238Z,8.79
2023-01-12T08:41:42.228Z,8.92
2023-01-12T08:44:11.314Z,8.86
2023-01-12T08:46:41.237Z,8.88
2023-01-12T08:49:11.239Z,8.87
2023-01-12T08:51:40.728Z,8.96
2023-01-12T08:54:10.126Z,9.05
2023-01-12T08:56:38.217Z,8.99
2023-01-12T08:59:06.294Z,9.00
2023-01-12T09:01:42.347Z,9.10
2023-01-12T09:04:11.359Z,9.12
2023-01-12T09:06:43.284Z,9.09
2023-01-12T09:09:14.229Z,9.19
2023-01-12T09:11:43.688Z,9.13
2023-01-12T09:14:12.345Z,9.21
2023-01-12T09:16:44.279Z,9.27
2023-01-12T09:19:12.093Z,9.29
2023-01-12T09:21:46.259Z,9.21
2023-01-12T09:24:15.527Z,9.32
2023-01-12T09:26:44.907Z,9.24
2023-01-12T09:29:14.248Z,9.36
2023-01-12T09:31:44.038Z,9.45
2023-01-12T09:34:13.249Z,9.34
2023-01-12T09:36:42.676Z,9.42
2023-01-12T09:39:26.206Z,9.45
2023-01-12T09:42:12.799Z,9.43
2023-01-12T09:45:15.237Z,9.45
2023-01-12T09:47:53.532Z,9.42
2023-01-12T09:50:25.819Z,9.45
2023-01-12T09:53:02.269Z,9.44
2023-01-12T09:55:42.829Z,9.51
2023-01-12T09:58:30.001Z,9.51
2023-01-12T10:01:00.379Z,9.48
2023-01-12T10:03:31.908Z,9.55
2023-01-12T10:06:01.521Z,9.50
2023-01-12T10:08:35.904Z,9.58
2023-01-12T10:11:12.088Z,9.70
2023-01-12T10:14:09.074Z,9.61
2023-01-12T10:16:48.816Z,9.71
2023-01-12T10:19:26.130Z,9.67
2023-01-12T10:21:55.349Z,9.77
2023-01-12T10:24:30.269Z,9.78
2023-01-12T10:27:23.540Z,9.78
2023-01-12T10:29:53.647Z,9.71
2023-01-12T10:32:34.496Z,9.71
2023-01-12T10:35:16.256Z,9.78
2023-01-12T10:37:45.730Z,9.80
2023-01-12T10:40:25.575Z,9.87
2023-01-12T10:43:19.609Z,9.81
2023-01-12T10:46:04.550Z,9.88
2023-01-12T10:48:34.545Z,9.90
2023-01-12T10:51:06.301Z,9.89
2023-01-12T10:53:42.461Z,9.88
2023-01-12T10:56:27.436Z,9.89
2023-01-12T10:59:00.272Z,9.89
2023-01-12T11:01:47.414Z,10.01
2023-01-12T11:04:17.266Z,9.95
2023-01-12T11:06:57.646Z,10.02
2023-01-12T11:09:28.627Z,9.98
2023-01-12T11:11:59.028Z,9.96
2023-01-12T11:14:30.538Z,10.12
2023-01-12T11:17:13.065Z,10.07
2023-01-12T11:19:44.094Z,10.06
2023-01-12T11:22:17.251Z,10.10
2023-01-12T11:27:50.248Z,10.07
2023-01-12T11:30:22.494Z,10.11
2023-01-12T11:32:55.951Z,10.13
2023-01-12T11:36:15.645Z,10.10
2023-01-12T11:38:46.245Z,10.15
2023-01-12T11:41:22.523Z,10.10
2023-01-12T11:44:01.302Z,10.15
2023-01-12T11:47:00.124Z,10.13
2023-01-12T11:50:01.266Z,10.17
2023-01-12T11:52:32.235Z,10.22
2023-01-12T11:55:00.273Z,10.24
2023-01-12T11:57:42.965Z,10.26
2023-01-12T12:00:25.681Z,10.24
2023-01-12T12:03:07.555Z,10.20
2023-01-12T12:05:45.267Z,10.20
2023-01-12T12:08:32.225Z,10.16
2023-01-12T12:11:04.843Z,10.17
2023-01-12T12:13:38.376Z,10.22
2023-01-12T12:16:23.617Z,10.23
2023-01-12T12:19:03.875Z,10.26
2023-01-12T12:21:46.893Z,10.37
2023-01-12T12:24:33.262Z,10.32
2023-01-12T12:27:13.325Z,10.35
2023-01-12T12:29:59.353Z,10.38
2023-01-12T12:32:37.074Z,10.38
2023-01-12T12:35:27.275Z,10.36
2023-01-12T12:38:26.281Z,10.35
2023-01-12T12:41:33.314Z,10.40
2023-01-12T12:44:36.070Z,10.38
2023-01-12T12:47:12.124Z,10.39
2023-01-12T12:49:41.701Z,10.36
2023-01-12T12:52:15.279Z,10.37
2023-01-12T12:54:44.199Z,10.37
2023-01-12T12:57:15.265Z,10.35
2023-01-12T12:59:57.705Z,10.37
2023-01-12T13:02:40.375Z,10.42
2023-01-12T13:05:11.044Z,10.48
2023-01-12T13:07:45.219Z,10.45
2023-01-12T13:10:27.775Z,10.39
2023-01-12T13:13:03.307Z,10.45
2023-01-12T13:15:36.749Z,10.50
2023-01-12T13:18:06.976Z,10.47
2023-01-12T13:20:49.149Z,10.42
2023-01-12T13:23:43.634Z,10.45
2023-01-12T13:26:39.106Z,10.41
2023-01-12T13:29:38.448Z,10.40
2023-01-12T13:32:42.372Z,10.43
2023-01-12T13:35:59.318Z,10.36
2023-01-12T13:38:39.888Z,10.35
2023-01-12T13:41:38.768Z,10.35
2023-01-12T13:44:09.342Z,10.37
2023-01-12T13:46:44.427Z,10.33
2023-01-12T13:49:47.350Z,10.38
2023-01-12T13:52:29.281Z,10.35
2023-01-12T13:54:58.833Z,10.35
2023-01-12T13:57:28.473Z,10.36
2023-01-12T13:59:58.015Z,10.32
2023-01-12T14:02:26.886Z,10.35
2023-01-12T14:05:15.266Z,10.33
2023-01-12T14:07:54.174Z,10.30
2023-01-12T14:10:36.997Z,10.36
2023-01-12T14:13:32.871Z,10.33
2023-01-12T14:16:18.519Z,10.44
2023-01-12T14:18:52.368Z,10.36
2023-01-12T14:21:23.688Z,10.28
2023-01-12T14:23:51.804Z,10.33
2023-01-12T14:26:27.333Z,10.34
2023-01-12T14:28:54.959Z,10.30
2023-01-12T14:31:28.199Z,10.35
2023-01-12T14:34:01.451Z,10.38
2023-01-12T14:36:31.277Z,10.35
2023-01-12T14:39:00.207Z,10.34
2023-01-12T14:41:49.284Z,10.34
2023-01-12T14:44:38.014Z,10.31
2023-01-12T14:47:05.984Z,10.42
2023-01-12T14:49:35.228Z,10.43
2023-01-12T14:52:06.285Z,10.39
2023-01-12T14:54:35.281Z,10.37
2023-01-12T14:57:08.059Z,10.34
2023-01-12T14:59:39.420Z,10.35
2023-01-12T15:02:35.283Z,10.36
2023-01-12T15:05:06.370Z,10.42
2023-01-12T15:07:36.715Z,10.34
2023-01-12T15:10:32.397Z,10.29
2023-01-12T15:13:25.803Z,10.35
2023-01-12T15:16:11.770Z,10.33
2023-01-12T15:18:54.701Z,10.38
2023-01-12T15:21:40.212Z,10.29
2023-01-12T15:24:46.103Z,10.31
2023-01-12T15:27:16.315Z,10.29
2023-01-12T15:29:46.698Z,10.25
2023-01-12T15:32:22.423Z,10.30
2023-01-12T15:34:51.269Z,10.24
2023-01-12T15:37:21.436Z,10.25
2023-01-12T15:39:49.254Z,10.25
2023-01-12T15:42:21.341Z,10.27
2023-01-12T15:44:53.426Z,10.23
2023-01-12T15:47:22.364Z,10.26
2023-01-12T15:49:53.070Z,10.29
2023-01-12T15:52:23.388Z,10.24
2023-01-12T15:55:19.208Z,10.20
2023-01-12T15:57:48.099Z,10.31
2023-01-12T16:00:19.613Z,10.26
2023-01-12T16:02:49.636Z,10.18
2023-01-12T16:05:19.105Z,10.19
2023-01-12T16:07:48.863Z,10.23
2023-01-12T16:10:18.271Z,10.18
2023-01-12T16:12:48.774Z,10.17
2023-01-12T16:15:19.630Z,10.20
2023-01-12T16:17:47.659Z,10.24
2023-01-12T16:20:18.351Z,10.24
2023-01-12T16:22:50.095Z,10.24
2023-01-12T16:25:18.367Z,10.16
2023-01-12T16:27:49.461Z,10.15
2023-01-12T16:30:19.276Z,10.17
2023-01-12T16:32:47.399Z,10.21
2023-01-12T16:35:16.269Z,10.20
2023-01-12T16:37:44.757Z,10.21
2023-01-12T16:40:13.660Z,10.16
2023-01-12T16:42:41.286Z,10.16
2023-01-12T16:45:09.777Z,10.20
2023-01-12T16:47:40.061Z,10.24
2023-01-12T16:50:08.490Z,10.37
2023-01-12T16:52:36.375Z,10.22
2023-01-12T16:55:04.791Z,10.23
2023-01-12T16:57:34.561Z,10.24
2023-01-12T17:00:02.263Z,10.18
2023-01-12T17:02:31.377Z,10.24
2023-01-12T17:05:01.562Z,10.23
2023-01-12T17:07:30.017Z,10.11
2023-01-12T17:09:59.140Z,10.21
2023-01-12T17:12:26.919Z,10.13
2023-01-12T17:14:56.290Z,10.19
2023-01-12T17:17:25.261Z,10.22
2023-01-12T17:19:53.477Z,10.23
2023-01-12T17:22:27.461Z,10.22
2023-01-12T17:24:55.547Z,10.21
2023-01-12T17:27:23.243Z,10.13
2023-01-12T17:29:51.502Z,10.25
2023-01-12T17:32:19.339Z,10.14
2023-01-12T17:34:48.022Z,10.28
2023-01-12T17:37:15.793Z,10.20
2023-01-12T17:39:46.051Z,10.16
2023-01-12T17:42:34.317Z,10.22
2023-01-12T17:45:03.032Z,10.18
2023-01-12T17:47:31.368Z,10.15
2023-01-12T17:49:59.494Z,10.24
2023-01-12T17:52:27.686Z,10.16
2023-01-12T17:54:57.057Z,10.15
2023-01-12T17:57:26.285Z,10.16
2023-01-12T17:59:54.893Z,10.17
2023-01-12T18:02:23.475Z,10.18
2023-01-12T18:04:51.197Z,10.18
2023-01-12T18:07:20.301Z,10.24
2023-01-12T18:09:47.907Z,10.24
2023-01-12T18:12:20.562Z,10.20
2023-01-12T18:14:48.375Z,10.13
2023-01-12T18:17:16.065Z,10.19
2023-01-12T18:19:43.663Z,10.17
2023-01-12T18:22:11.374Z,10.16
2023-01-12T18:24:39.111Z,10.18
2023-01-12T18:27:06.726Z,10.13
2023-01-12T18:29:36.483Z,10.17
2023-01-12T18:32:04.233Z,10.15
2023-01-12T18:34:32.795Z,10.22
2023-01-12T18:37:00.833Z,10.20
2023-01-12T18:39:28.472Z,10.24
2023-01-12T18:42:14.679Z,10.22
2023-01-12T18:44:43.729Z,10.17
2023-01-12T18:47:31.920Z,10.18
2023-01-12T18:50:19.535Z,10.27
2023-01-12T18:53:04.837Z,10.19
2023-01-12T18:55:34.017Z,10.25
2023-01-12T18:58:01.797Z,10.24
2023-01-12T19:00:31.168Z,10.13
2023-01-12T19:02:59.824Z,10.15
2023-01-12T19:05:34.832Z,10.21
2023-01-12T19:08:26.012Z,10.29
2023-01-12T19:10:53.994Z,10.18
2023-01-12T19:13:39.942Z,10.17
2023-01-12T19:16:33.318Z,10.21
2023-01-12T19:19:01.038Z,10.23
2023-01-12T19:21:46.109Z,10.21
2023-01-12T19:24:31.434Z,10.14
2023-01-12T19:27:16.754Z,10.19
2023-01-12T19:29:44.983Z,10.17
2023-01-12T19:32:13.999Z,10.19
2023-01-12T19:34:41.729Z,10.15
2023-01-12T19:37:09.562Z,10.13
2023-01-12T19:39:59.467Z,10.15
2023-01-12T19:42:45.774Z,10.20
2023-01-12T19:45:13.620Z,10.14
2023-01-12T19:47:42.815Z,10.25
2023-01-12T19:50:12.368Z,10.20
2023-01-12T19:52:41.535Z,10.13
2023-01-12T19:55:12.956Z,10.10
2023-01-12T19:57:42.919Z,10.09
2023-01-12T20:00:14.322Z,10.09
2023-01-12T20:02:43.901Z,10.09
2023-01-12T20:05:13.744Z,10.10
2023-01-12T20:07:41.498Z,10.18
2023-01-12T20:10:11.456Z,10.20
2023-01-12T20:12:39.284Z,10.14
2023-01-12T20:15:08.043Z,10.16
2023-01-12T20:17:36.834Z,10.14
2023-01-12T20:20:08.359Z,10.11
2023-01-12T20:22:38.267Z,10.18
2023-01-12T20:25:07.080Z,10.15
2023-01-12T20:27:36.485Z,10.12
2023-01-12T20:30:05.553Z,10.15
2023-01-12T20:32:38.148Z,10.13
2023-01-12T20:35:08.407Z,10.09
2023-01-12T20:37:36.882Z,10.10
2023-01-12T20:40:05.123Z,10.07
2023-01-12T20:42:33.462Z,10.10
2023-01-12T20:45:02.324Z,10.10
2023-01-12T20:47:33.598Z,10.06
2023-01-12T20:50:02.261Z,10.13
2023-01-12T20:52:31.193Z,10.10
2023-01-12T20:54:58.873Z,10.09
2023-01-12T20:57:26.910Z,10.11
2023-01-12T20:59:54.592Z,10.11
2023-01-12T21:02:25.729Z,10.10
2023-01-12T21:04:54.338Z,10.09
2023-01-12T21:07:22.005Z,10.09
2023-01-12T21:09:51.502Z,10.09
2023-01-12T21:12:19.486Z,10.07
2023-01-12T21:14:47.140Z,10.10
2023-01-12T21:17:16.617Z,10.07
2023-01-12T21:19:44.276Z,10.08
2023-01-12T21:22:12.064Z,10.07
2023-01-12T21:24:40.018Z,10.08
2023-01-12T21:27:09.285Z,10.13
2023-01-12T21:29:36.931Z,10.10
2023-01-12T21:32:04.840Z,10.12
2023-01-12T21:34:32.982Z,10.12
2023-01-12T21:37:00.643Z,10.11
2023-01-12T21:39:28.390Z,10.08
2023-01-12T21:42:14.316Z,10.15
2023-01-12T21:44:43.355Z,10.10
2023-01-12T21:47:11.149Z,10.12
2023-01-12T21:49:39.423Z,10.14
2023-01-12T21:52:07.937Z,10.14
2023-01-12T21:54:35.534Z,10.10
2023-01-12T21:57:03.417Z,10.11
2023-01-12T21:59:31.230Z,10.15
2023-01-12T22:02:00.397Z,10.22
2023-01-12T22:04:28.069Z,10.16
2023-01-12T22:06:56.306Z,10.12
2023-01-12T22:09:24.876Z,10.10
2023-01-12T22:11:54.457Z,10.15
2023-01-12T22:14:22.052Z,10.13
2023-01-12T22:16:49.702Z,10.11
2023-01-12T22:19:19.300Z,10.12
2023-01-12T22:21:46.981Z,10.14
2023-01-12T22:24:14.603Z,10.13
2023-01-12T22:26:42.250Z,10.14
2023-01-12T22:29:10.090Z,10.11
2023-01-12T22:31:37.883Z,10.09
2023-01-12T22:34:07.075Z,10.10
2023-01-12T22:36:42.601Z,10.09
2023-01-12T22:39:12.408Z,10.09
2023-01-12T22:41:41.324Z,10.12
2023-01-12T22:44:08.997Z,10.13
2023-01-12T22:46:36.849Z,10.16
2023-01-12T22:49:04.500Z,10.20
2023-01-12T22:51:32.220Z,10.18
2023-01-12T22:54:01.442Z,10.16
2023-01-12T22:56:29.065Z,10.18
2023-01-12T22:58:57.632Z,10.17
2023-01-12T23:01:29.051Z,10.23
2023-01-12T23:03:59.434Z,10.20
2023-01-12T23:06:28.064Z,10.18
2023-01-12T23:08:56.645Z,10.10
2023-01-12T23:11:27.401Z,10.16
2023-01-12T23:13:55.394Z,10.13
2023-01-12T23:16:23.926Z,10.17
2023-01-12T23:19:16.073Z,10.15
2023-01-12T23:21:43.882Z,10.14
2023-01-12T23:24:11.747Z,10.16
2023-01-12T23:26:41.283Z,10.18
2023-01-12T23:29:09.554Z,10.21
2023-01-12T23:31:38.620Z,10.18
2023-01-12T23:34:06.461Z,10.12
2023-01-12T23:36:35.901Z,10.14
2023-01-12T23:39:06.580Z,10.13
2023-01-12T23:41:37.131Z,10.12
2023-01-12T23:44:08.623Z,10.16
2023-01-12T23:46:39.241Z,10.16
2023-01-12T23:49:07.476Z,10.11
2023-01-12T23:51:36.529Z,10.19
2023-01-12T23:54:04.576Z,10.25
2023-01-12T23:56:34.644Z,10.13
2023-01-12T23:59:03.481Z,10.12
